Seabreeze 1 — V3RT5 — position and weather

sailwx.info

Track history (hours):
 
Tides and Currents Weather Stations Pressure Air Temp Water Temp Dewpoint Dewpoint Depression Visibility Wind Speed Wind Dir Waves Ship Positions

Seabreeze 1

Last reported at 2015-Mar-28 15:16 UTC. Time now 2015-Apr-02 09:49 UTC.
Position N 40°56' E 028°51'.

Length 139 m; draft 3.8 m.

Type: Cargo ship. MMSI: 312411000.

Date/timePositionNaut miles runAvg speedWind from/ knotsBaromVisibWave heightAir tempDewpointWater temp
2015-Mar-28 15:16N 40°56' E 028°51'4 6.2
2015-Mar-28 14:33N 40°58' E 028°57'1 1.0
2015-Mar-28 13:27N 40°59' E 028°56'0 0.0
2015-Mar-28 12:33N 40°59' E 028°56'0 0.0
2015-Mar-28 11:04N 40°59' E 028°56'1 1.5
2015-Mar-28 10:33N 40°59' E 028°57'286 5.6
2015-Mar-26 07:33N 43°41' E 034°17'7 6.5
2015-Mar-26 06:31N 43°45' E 034°24'6 6.5
2015-Mar-26 05:31N 43°50' E 034°30'7 6.5
2015-Mar-26 04:28N 43°55' E 034°37'7 6.7
2015-Mar-26 03:27N 43°59' E 034°44'6 6.9
2015-Mar-26 02:32N 44°02' E 034°52'  
Track history (hours):
 
Tides and Currents Weather Stations Pressure Air Temp Water Temp Dewpoint Dewpoint Depression Visibility Wind Speed Wind Dir Waves Ship Positions

Seabreeze 1

Last reported at 2015-Mar-28 15:16 UTC. Time now 2015-Apr-02 09:49 UTC.
Position N 40°56' E 028°51'.

Length 139 m; draft 3.8 m.

Type: Cargo ship. MMSI: 312411000.

Date/timePositionNaut miles runAvg speedWind from/ knotsBaromVisibWave heightAir tempDewpointWater temp
2015-Mar-28 15:16N 40°56' E 028°51'4 6.2
2015-Mar-28 14:33N 40°58' E 028°57'1 1.0
2015-Mar-28 13:27N 40°59' E 028°56'0 0.0
2015-Mar-28 12:33N 40°59' E 028°56'0 0.0
2015-Mar-28 11:04N 40°59' E 028°56'1 1.5
2015-Mar-28 10:33N 40°59' E 028°57'286 5.6
2015-Mar-26 07:33N 43°41' E 034°17'7 6.5
2015-Mar-26 06:31N 43°45' E 034°24'6 6.5
2015-Mar-26 05:31N 43°50' E 034°30'7 6.5
2015-Mar-26 04:28N 43°55' E 034°37'7 6.7
2015-Mar-26 03:27N 43°59' E 034°44'6 6.9
2015-Mar-26 02:32N 44°02' E 034°52'  

Dump ship's entire track history